sensor_id;sensor_type;location;lat;lon;timestamp;pressure;altitude;pressure_sealevel;temperature;humidity
80139;BME280;69467;59.842;17.604;2023-11-21T00:16:19;101619.16;;;0.06;100.00
80139;BME280;69467;59.842;17.604;2023-11-21T00:18:44;101625.56;;;0.05;100.00
80139;BME280;69467;59.842;17.604;2023-11-21T00:21:11;101626.56;;;0.04;100.00
80139;BME280;69467;59.842;17.604;2023-11-21T00:23:37;101622.88;;;0.05;100.00
80139;BME280;69467;59.842;17.604;2023-11-21T00:26:03;101624.69;;;0.05;100.00
80139;BME280;69467;59.842;17.604;2023-11-21T00:28:29;101623.88;;;0.04;100.00
80139;BME280;69467;59.842;17.604;2023-11-21T00:30:55;101619.50;;;0.03;100.00
80139;BME280;69467;59.842;17.604;2023-11-21T00:33:20;101629.09;;;0.06;100.00
80139;BME280;69467;59.842;17.604;2023-11-21T00:35:45;101630.94;;;0.05;100.00
80139;BME280;69467;59.842;17.604;2023-11-21T00:38:10;101632.78;;;0.05;100.00
80139;BME280;69467;59.842;17.604;2023-11-21T00:40:36;101634.66;;;0.04;100.00
80139;BME280;69467;59.842;17.604;2023-11-21T00:43:01;101624.06;;;0.03;100.00
80139;BME280;69467;59.842;17.604;2023-11-21T00:45:26;101639.03;;;0.05;100.00
80139;BME280;69467;59.842;17.604;2023-11-21T00:47:52;101642.56;;;0.06;100.00
80139;BME280;69467;59.842;17.604;2023-11-21T00:50:17;101643.56;;;0.05;100.00
80139;BME280;69467;59.842;17.604;2023-11-21T00:52:42;101637.16;;;0.06;100.00
80139;BME280;69467;59.842;17.604;2023-11-21T00:55:08;101635.66;;;0.03;100.00
80139;BME280;69467;59.842;17.604;2023-11-21T00:57:33;101635.66;;;0.03;100.00
80139;BME280;69467;59.842;17.604;2023-11-21T00:59:59;101642.03;;;0.02;100.00
80139;BME280;69467;59.842;17.604;2023-11-21T01:02:25;101632.63;;;-0.02;100.00
80139;BME280;69467;59.842;17.604;2023-11-21T01:04:50;101650.47;;;-0.01;100.00
80139;BME280;69467;59.842;17.604;2023-11-21T01:07:16;101643.59;;;-0.04;100.00
80139;BME280;69467;59.842;17.604;2023-11-21T01:09:41;101652.81;;;-0.06;100.00
80139;BME280;69467;59.842;17.604;2023-11-21T01:12:06;101647.59;;;-0.08;100.00
80139;BME280;69467;59.842;17.604;2023-11-21T01:14:32;101647.09;;;-0.11;100.00
80139;BME280;69467;59.842;17.604;2023-11-21T01:16:57;101650.97;;;-0.14;100.00
80139;BME280;69467;59.842;17.604;2023-11-21T01:19:22;101654.66;;;-0.15;100.00
80139;BME280;69467;59.842;17.604;2023-11-21T01:21:47;101658.53;;;-0.18;100.00
80139;BME280;69467;59.842;17.604;2023-11-21T01:24:13;101659.53;;;-0.19;100.00
80139;BME280;69467;59.842;17.604;2023-11-21T01:26:38;101663.28;;;-0.20;100.00
80139;BME280;69467;59.842;17.604;2023-11-21T01:29:03;101661.06;;;-0.24;100.00
80139;BME280;69467;59.842;17.604;2023-11-21T01:31:29;101665.28;;;-0.22;100.00
80139;BME280;69467;59.842;17.604;2023-11-21T01:33:55;101668.16;;;-0.23;100.00
80139;BME280;69467;59.842;17.604;2023-11-21T01:36:20;101672.53;;;-0.22;100.00
80139;BME280;69467;59.842;17.604;2023-11-21T01:38:46;101678.06;;;-0.24;100.00
80139;BME280;69467;59.842;17.604;2023-11-21T01:41:13;101680.25;;;-0.27;100.00
80139;BME280;69467;59.842;17.604;2023-11-21T01:43:38;101683.09;;;-0.29;100.00
80139;BME280;69467;59.842;17.604;2023-11-21T01:46:03;101679.72;;;-0.31;100.00
80139;BME280;69467;59.842;17.604;2023-11-21T01:48:31;101688.66;;;-0.30;100.00
80139;BME280;69467;59.842;17.604;2023-11-21T01:50:56;101683.28;;;-0.30;100.00
80139;BME280;69467;59.842;17.604;2023-11-21T01:53:23;101697.91;;;-0.33;100.00
80139;BME280;69467;59.842;17.604;2023-11-21T01:55:49;101698.06;;;-0.35;100.00
80139;BME280;69467;59.842;17.604;2023-11-21T01:58:14;101701.44;;;-0.33;100.00
80139;BME280;69467;59.842;17.604;2023-11-21T02:00:39;101700.59;;;-0.33;100.00
80139;BME280;69467;59.842;17.604;2023-11-21T02:03:04;101705.47;;;-0.37;100.00
80139;BME280;69467;59.842;17.604;2023-11-21T02:05:31;101700.91;;;-0.36;100.00
80139;BME280;69467;59.842;17.604;2023-11-21T02:07:57;101699.22;;;-0.37;100.00
80139;BME280;69467;59.842;17.604;2023-11-21T02:10:22;101699.56;;;-0.40;100.00
80139;BME280;69467;59.842;17.604;2023-11-21T02:12:48;101708.66;;;-0.41;100.00
80139;BME280;69467;59.842;17.604;2023-11-21T02:15:14;101709.66;;;-0.42;100.00
80139;BME280;69467;59.842;17.604;2023-11-21T02:17:45;101709.81;;;-0.44;100.00
80139;BME280;69467;59.842;17.604;2023-11-21T02:20:12;101712.69;;;-0.45;100.00
80139;BME280;69467;59.842;17.604;2023-11-21T02:22:41;101719.06;;;-0.46;100.00
80139;BME280;69467;59.842;17.604;2023-11-21T02:25:07;101717.72;;;-0.51;100.00
80139;BME280;69467;59.842;17.604;2023-11-21T02:27:32;101718.88;;;-0.53;100.00
80139;BME280;69467;59.842;17.604;2023-11-21T02:29:58;101714.66;;;-0.56;100.00
80139;BME280;69467;59.842;17.604;2023-11-21T02:32:23;101717.69;;;-0.59;100.00
80139;BME280;69467;59.842;17.604;2023-11-21T02:34:51;101719.53;;;-0.59;100.00
80139;BME280;69467;59.842;17.604;2023-11-21T02:37:16;101726.41;;;-0.65;100.00
80139;BME280;69467;59.842;17.604;2023-11-21T02:39:41;101730.28;;;-0.68;100.00
80139;BME280;69467;59.842;17.604;2023-11-21T02:42:07;101733.97;;;-0.69;100.00
80139;BME280;69467;59.842;17.604;2023-11-21T02:44:32;101733.97;;;-0.69;100.00
80139;BME280;69467;59.842;17.604;2023-11-21T02:46:57;101737.16;;;-0.73;100.00
80139;BME280;69467;59.842;17.604;2023-11-21T02:49:22;101742.00;;;-0.77;100.00
80139;BME280;69467;59.842;17.604;2023-11-21T02:51:48;101745.69;;;-0.78;100.00
80139;BME280;69467;59.842;17.604;2023-11-21T02:54:13;101752.25;;;-0.81;100.00
80139;BME280;69467;59.842;17.604;2023-11-21T02:56:38;101746.84;;;-0.81;100.00
80139;BME280;69467;59.842;17.604;2023-11-21T02:59:05;101755.09;;;-0.82;100.00
80139;BME280;69467;59.842;17.604;2023-11-21T03:01:30;101759.66;;;-0.83;100.00
80139;BME280;69467;59.842;17.604;2023-11-21T03:03:56;101754.91;;;-0.89;100.00
80139;BME280;69467;59.842;17.604;2023-11-21T03:06:21;101755.03;;;-0.90;100.00
80139;BME280;69467;59.842;17.604;2023-11-21T03:08:47;101761.47;;;-0.91;100.00
80139;BME280;69467;59.842;17.604;2023-11-21T03:11:12;101764.97;;;-0.91;100.00
80139;BME280;69467;59.842;17.604;2023-11-21T03:13:38;101774.72;;;-0.90;100.00
80139;BME280;69467;59.842;17.604;2023-11-21T03:16:04;101770.53;;;-0.92;100.00
80139;BME280;69467;59.842;17.604;2023-11-21T03:18:29;101770.00;;;-0.96;100.00
80139;BME280;69467;59.842;17.604;2023-11-21T03:20:55;101771.69;;;-0.95;100.00
80139;BME280;69467;59.842;17.604;2023-11-21T03:23:20;101774.69;;;-0.98;100.00
80139;BME280;69467;59.842;17.604;2023-11-21T03:25:45;101778.53;;;-1.01;100.00
80139;BME280;69467;59.842;17.604;2023-11-21T03:28:11;101782.22;;;-1.02;100.00
80139;BME280;69467;59.842;17.604;2023-11-21T03:30:36;101780.69;;;-1.04;100.00
80139;BME280;69467;59.842;17.604;2023-11-21T03:33:01;101782.03;;;-1.08;100.00
80139;BME280;69467;59.842;17.604;2023-11-21T03:35:26;101790.38;;;-1.11;100.00
80139;BME280;69467;59.842;17.604;2023-11-21T03:37:53;101788.88;;;-1.14;100.00
80139;BME280;69467;59.842;17.604;2023-11-21T03:40:18;101785.47;;;-1.16;100.00
80139;BME280;69467;59.842;17.604;2023-11-21T03:42:43;101792.88;;;-1.18;100.00
80139;BME280;69467;59.842;17.604;2023-11-21T03:45:08;101793.72;;;-1.18;100.00
80139;BME280;69467;59.842;17.604;2023-11-21T03:47:34;101800.09;;;-1.19;100.00
80139;BME280;69467;59.842;17.604;2023-11-21T03:49:59;101799.41;;;-1.21;100.00
80139;BME280;69467;59.842;17.604;2023-11-21T03:52:24;101801.56;;;-1.24;100.00
80139;BME280;69467;59.842;17.604;2023-11-21T03:54:50;101800.72;;;-1.25;100.00
80139;BME280;69467;59.842;17.604;2023-11-21T03:57:15;101808.78;;;-1.25;100.00
80139;BME280;69467;59.842;17.604;2023-11-21T03:59:41;101808.13;;;-1.27;100.00
80139;BME280;69467;59.842;17.604;2023-11-21T04:02:06;101806.72;;;-1.31;100.00
80139;BME280;69467;59.842;17.604;2023-11-21T04:04:32;101803.81;;;-1.38;100.00
80139;BME280;69467;59.842;17.604;2023-11-21T04:06:58;101819.09;;;-1.38;100.00
80139;BME280;69467;59.842;17.604;2023-11-21T04:09:23;101822.81;;;-1.39;100.00
80139;BME280;69467;59.842;17.604;2023-11-21T04:11:50;101824.63;;;-1.40;100.00
80139;BME280;69467;59.842;17.604;2023-11-21T04:14:15;101823.78;;;-1.40;100.00
80139;BME280;69467;59.842;17.604;2023-11-21T04:16:41;101824.78;;;-1.41;100.00
80139;BME280;69467;59.842;17.604;2023-11-21T04:19:07;101825.94;;;-1.44;100.00
80139;BME280;69467;59.842;17.604;2023-11-21T04:21:34;101825.25;;;-1.46;100.00
80139;BME280;69467;59.842;17.604;2023-11-21T04:23:59;101834.31;;;-1.47;100.00
80139;BME280;69467;59.842;17.604;2023-11-21T04:26:24;101829.94;;;-1.48;100.00
80139;BME280;69467;59.842;17.604;2023-11-21T04:28:50;101833.94;;;-1.52;100.00
80139;BME280;69467;59.842;17.604;2023-11-21T04:31:15;101836.63;;;-1.52;100.00
80139;BME280;69467;59.842;17.604;2023-11-21T04:33:40;101842.16;;;-1.54;100.00
80139;BME280;69467;59.842;17.604;2023-11-21T04:36:06;101843.31;;;-1.56;100.00
80139;BME280;69467;59.842;17.604;2023-11-21T04:38:31;101850.81;;;-1.60;100.00
80139;BME280;69467;59.842;17.604;2023-11-21T04:40:57;101853.81;;;-1.63;100.00
80139;BME280;69467;59.842;17.604;2023-11-21T04:43:23;101859.50;;;-1.66;100.00
80139;BME280;69467;59.842;17.604;2023-11-21T04:45:48;101859.50;;;-1.66;100.00
80139;BME280;69467;59.842;17.604;2023-11-21T04:48:13;101863.16;;;-1.67;100.00
80139;BME280;69467;59.842;17.604;2023-11-21T04:50:39;101865.16;;;-1.69;100.00
80139;BME280;69467;59.842;17.604;2023-11-21T04:53:04;101867.84;;;-1.69;100.00
80139;BME280;69467;59.842;17.604;2023-11-21T04:55:30;101866.31;;;-1.72;100.00
80139;BME280;69467;59.842;17.604;2023-11-21T04:57:55;101874.06;;;-1.69;100.00
80139;BME280;69467;59.842;17.604;2023-11-21T05:00:21;101868.88;;;-1.70;100.00
80139;BME280;69467;59.842;17.604;2023-11-21T05:02:46;101870.69;;;-1.71;100.00
80139;BME280;69467;59.842;17.604;2023-11-21T05:05:11;101877.75;;;-1.70;100.00
80139;BME280;69467;59.842;17.604;2023-11-21T05:07:37;101880.28;;;-1.68;100.00
80139;BME280;69467;59.842;17.604;2023-11-21T05:10:03;101880.28;;;-1.68;100.00
80139;BME280;69467;59.842;17.604;2023-11-21T05:12:31;101882.13;;;-1.69;100.00
80139;BME280;69467;59.842;17.604;2023-11-21T05:15:00;101890.03;;;-1.67;100.00
80139;BME280;69467;59.842;17.604;2023-11-21T05:17:26;101889.19;;;-1.68;100.00
80139;BME280;69467;59.842;17.604;2023-11-21T05:19:51;101895.41;;;-1.67;100.00
80139;BME280;69467;59.842;17.604;2023-11-21T05:22:17;101899.09;;;-1.68;100.00
80139;BME280;69467;59.842;17.604;2023-11-21T05:24:42;101898.25;;;-1.69;100.00
80139;BME280;69467;59.842;17.604;2023-11-21T05:27:07;101904.44;;;-1.68;100.00
80139;BME280;69467;59.842;17.604;2023-11-21T05:29:34;101901.78;;;-1.68;100.00
80139;BME280;69467;59.842;17.604;2023-11-21T05:31:59;101908.00;;;-1.68;100.00
80139;BME280;69467;59.842;17.604;2023-11-21T05:34:25;101909.28;;;-1.72;100.00
80139;BME280;69467;59.842;17.604;2023-11-21T05:36:51;101908.44;;;-1.72;100.00
80139;BME280;69467;59.842;17.604;2023-11-21T05:39:16;101919.19;;;-1.72;100.00
80139;BME280;69467;59.842;17.604;2023-11-21T05:41:44;101913.13;;;-1.74;100.00
80139;BME280;69467;59.842;17.604;2023-11-21T05:44:10;101924.84;;;-1.75;100.00
80139;BME280;69467;59.842;17.604;2023-11-21T05:46:35;101924.31;;;-1.79;100.00
80139;BME280;69467;59.842;17.604;2023-11-21T05:49:01;101921.78;;;-1.81;100.00
80139;BME280;69467;59.842;17.604;2023-11-21T05:51:26;101928.13;;;-1.82;100.00
80139;BME280;69467;59.842;17.604;2023-11-21T05:53:51;101925.63;;;-1.83;100.00
80139;BME280;69467;59.842;17.604;2023-11-21T05:56:16;101931.16;;;-1.85;100.00
80139;BME280;69467;59.842;17.604;2023-11-21T05:58:43;101933.13;;;-1.87;100.00
80139;BME280;69467;59.842;17.604;2023-11-21T06:01:08;101933.97;;;-1.86;100.00
80139;BME280;69467;59.842;17.604;2023-11-21T06:03:34;101939.78;;;-1.91;100.00
80139;BME280;69467;59.842;17.604;2023-11-21T06:05:59;101933.56;;;-1.91;100.00
80139;BME280;69467;59.842;17.604;2023-11-21T06:08:24;101940.78;;;-1.92;100.00
80139;BME280;69467;59.842;17.604;2023-11-21T06:10:49;101932.03;;;-1.94;100.00
80139;BME280;69467;59.842;17.604;2023-11-21T06:13:15;101941.63;;;-1.91;100.00
80139;BME280;69467;59.842;17.604;2023-11-21T06:15:40;101945.31;;;-1.92;100.00
80139;BME280;69467;59.842;17.604;2023-11-21T06:18:05;101958.75;;;-1.92;100.00
80139;BME280;69467;59.842;17.604;2023-11-21T06:20:35;101958.88;;;-1.94;100.00
80139;BME280;69467;59.842;17.604;2023-11-21T06:23:02;101960.88;;;-1.96;100.00
80139;BME280;69467;59.842;17.604;2023-11-21T06:25:28;101965.25;;;-1.95;100.00
80139;BME280;69467;59.842;17.604;2023-11-21T06:27:53;101977.00;;;-1.96;100.00
80139;BME280;69467;59.842;17.604;2023-11-21T06:30:19;101972.28;;;-1.94;100.00
80139;BME280;69467;59.842;17.604;2023-11-21T06:32:45;101970.31;;;-1.92;100.00
80139;BME280;69467;59.842;17.604;2023-11-21T06:35:13;101977.66;;;-1.94;100.00
80139;BME280;69467;59.842;17.604;2023-11-21T06:37:38;101988.41;;;-1.94;100.00
80139;BME280;69467;59.842;17.604;2023-11-21T06:40:04;101986.03;;;-1.97;100.00
80139;BME280;69467;59.842;17.604;2023-11-21T06:42:30;101990.69;;;-1.99;100.00
80139;BME280;69467;59.842;17.604;2023-11-21T06:44:55;101996.22;;;-2.01;100.00
80139;BME280;69467;59.842;17.604;2023-11-21T06:47:24;101991.00;;;-2.02;100.00
80139;BME280;69467;59.842;17.604;2023-11-21T06:49:54;102004.44;;;-2.02;100.00
80139;BME280;69467;59.842;17.604;2023-11-21T06:52:20;102004.13;;;-1.99;100.00
80139;BME280;69467;59.842;17.604;2023-11-21T06:54:45;102004.13;;;-1.99;100.00
80139;BME280;69467;59.842;17.604;2023-11-21T06:57:12;102004.13;;;-1.99;100.00
80139;BME280;69467;59.842;17.604;2023-11-21T06:59:38;102007.66;;;-1.99;100.00
80139;BME280;69467;59.842;17.604;2023-11-21T07:02:03;102016.00;;;-2.02;100.00
80139;BME280;69467;59.842;17.604;2023-11-21T07:04:31;102017.97;;;-2.04;100.00
80139;BME280;69467;59.842;17.604;2023-11-21T07:06:57;102020.81;;;-2.05;100.00
80139;BME280;69467;59.842;17.604;2023-11-21T07:09:22;102012.91;;;-2.07;100.00
80139;BME280;69467;59.842;17.604;2023-11-21T07:11:48;102019.44;;;-2.09;100.00
80139;BME280;69467;59.842;17.604;2023-11-21T07:14:13;102026.75;;;-2.12;100.00
80139;BME280;69467;59.842;17.604;2023-11-21T07:16:38;102025.22;;;-2.14;100.00
80139;BME280;69467;59.842;17.604;2023-11-21T07:19:04;102029.88;;;-2.16;100.00
80139;BME280;69467;59.842;17.604;2023-11-21T07:21:32;102035.25;;;-2.16;100.00
80139;BME280;69467;59.842;17.604;2023-11-21T07:23:59;102036.94;;;-2.15;100.00
80139;BME280;69467;59.842;17.604;2023-11-21T07:26:26;102034.56;;;-2.18;100.00
80139;BME280;69467;59.842;17.604;2023-11-21T07:28:51;102038.09;;;-2.18;100.00
80139;BME280;69467;59.842;17.604;2023-11-21T07:31:16;102038.09;;;-2.18;100.00
80139;BME280;69467;59.842;17.604;2023-11-21T07:33:41;102036.38;;;-2.19;100.00
80139;BME280;69467;59.842;17.604;2023-11-21T07:36:07;102039.22;;;-2.20;100.00
80139;BME280;69467;59.842;17.604;2023-11-21T07:38:32;102033.28;;;-2.24;100.00
80139;BME280;69467;59.842;17.604;2023-11-21T07:40:58;102030.78;;;-2.25;100.00
80139;BME280;69467;59.842;17.604;2023-11-21T07:43:26;102032.16;;;-2.21;100.00
80139;BME280;69467;59.842;17.604;2023-11-21T07:45:51;102031.31;;;-2.22;100.00
80139;BME280;69467;59.842;17.604;2023-11-21T07:48:17;102043.75;;;-2.21;100.00
80139;BME280;69467;59.842;17.604;2023-11-21T07:50:42;102039.38;;;-2.22;100.00
80139;BME280;69467;59.842;17.604;2023-11-21T07:53:07;102048.25;;;-2.21;100.00
80139;BME280;69467;59.842;17.604;2023-11-21T07:55:33;102048.81;;;-2.18;100.00
80139;BME280;69467;59.842;17.604;2023-11-21T07:57:58;102049.81;;;-2.19;100.00
80139;BME280;69467;59.842;17.604;2023-11-21T08:00:24;102057.84;;;-2.19;100.00
80139;BME280;69467;59.842;17.604;2023-11-21T08:02:49;102065.22;;;-2.21;100.00
80139;BME280;69467;59.842;17.604;2023-11-21T08:05:14;102060.53;;;-2.19;100.00
80139;BME280;69467;59.842;17.604;2023-11-21T08:07:40;102059.84;;;-2.21;100.00
80139;BME280;69467;59.842;17.604;2023-11-21T08:10:06;102056.47;;;-2.23;100.00
80139;BME280;69467;59.842;17.604;2023-11-21T08:12:31;102062.66;;;-2.22;100.00
80139;BME280;69467;59.842;17.604;2023-11-21T08:14:57;102065.66;;;-2.25;100.00
80139;BME280;69467;59.842;17.604;2023-11-21T08:17:22;102081.91;;;-2.27;100.00
80139;BME280;69467;59.842;17.604;2023-11-21T08:19:48;102071.16;;;-2.27;100.00
80139;BME280;69467;59.842;17.604;2023-11-21T08:22:17;102081.91;;;-2.27;100.00
80139;BME280;69467;59.842;17.604;2023-11-21T08:24:46;102085.28;;;-2.25;100.00
80139;BME280;69467;59.842;17.604;2023-11-21T08:27:11;102086.25;;;-2.26;100.00
80139;BME280;69467;59.842;17.604;2023-11-21T08:29:37;102092.34;;;-2.24;100.00
80139;BME280;69467;59.842;17.604;2023-11-21T08:32:02;102092.34;;;-2.24;100.00
80139;BME280;69467;59.842;17.604;2023-11-21T08:34:28;102099.41;;;-2.23;100.00
80139;BME280;69467;59.842;17.604;2023-11-21T08:36:53;102091.63;;;-2.26;100.00
80139;BME280;69467;59.842;17.604;2023-11-21T08:39:19;102098.00;;;-2.27;100.00
80139;BME280;69467;59.842;17.604;2023-11-21T08:41:44;102100.53;;;-2.25;100.00
80139;BME280;69467;59.842;17.604;2023-11-21T08:44:09;102091.63;;;-2.26;100.00
80139;BME280;69467;59.842;17.604;2023-11-21T08:46:35;102087.38;;;-2.29;100.00
80139;BME280;69467;59.842;17.604;2023-11-21T08:49:02;102097.28;;;-2.29;100.00
80139;BME280;69467;59.842;17.604;2023-11-21T08:51:27;102097.44;;;-2.31;100.00
80139;BME280;69467;59.842;17.604;2023-11-21T08:53:52;102094.88;;;-2.32;100.00
80139;BME280;69467;59.842;17.604;2023-11-21T08:56:18;102098.56;;;-2.33;100.00
80139;BME280;69467;59.842;17.604;2023-11-21T08:58:45;102101.09;;;-2.32;100.00
80139;BME280;69467;59.842;17.604;2023-11-21T09:01:10;102110.16;;;-2.33;100.00
80139;BME280;69467;59.842;17.604;2023-11-21T09:03:37;102115.38;;;-2.31;100.00
80139;BME280;69467;59.842;17.604;2023-11-21T09:06:02;102115.38;;;-2.31;100.00
80139;BME280;69467;59.842;17.604;2023-11-21T09:08:28;102114.38;;;-2.30;100.00
80139;BME280;69467;59.842;17.604;2023-11-21T09:10:54;102115.38;;;-2.31;100.00
80139;BME280;69467;59.842;17.604;2023-11-21T09:13:19;102123.81;;;-2.26;100.00
80139;BME280;69467;59.842;17.604;2023-11-21T09:15:45;102130.91;;;-2.25;100.00
80139;BME280;69467;59.842;17.604;2023-11-21T09:18:14;102129.19;;;-2.26;100.00
80139;BME280;69467;59.842;17.604;2023-11-21T09:20:40;102128.91;;;-2.23;100.00
80139;BME280;69467;59.842;17.604;2023-11-21T09:23:05;102140.06;;;-2.18;100.00
80139;BME280;69467;59.842;17.604;2023-11-21T09:25:32;102135.56;;;-2.17;100.00
80139;BME280;69467;59.842;17.604;2023-11-21T09:27:57;102136.41;;;-2.17;100.00
80139;BME280;69467;59.842;17.604;2023-11-21T09:30:23;102140.78;;;-2.16;100.00
80139;BME280;69467;59.842;17.604;2023-11-21T09:32:49;102138.66;;;-2.12;100.00
80139;BME280;69467;59.842;17.604;2023-11-21T09:35:15;102139.50;;;-2.12;100.00
80139;BME280;69467;59.842;17.604;2023-11-21T09:37:40;102141.47;;;-2.14;100.00
80139;BME280;69467;59.842;17.604;2023-11-21T09:40:06;102139.34;;;-2.10;100.00
80139;BME280;69467;59.842;17.604;2023-11-21T09:42:54;102132.84;;;-2.07;100.00
80139;BME280;69467;59.842;17.604;2023-11-21T09:45:27;102137.22;;;-2.06;100.00
80139;BME280;69467;59.842;17.604;2023-11-21T09:47:54;102140.63;;;-2.04;100.00
80139;BME280;69467;59.842;17.604;2023-11-21T09:50:20;102144.16;;;-2.04;100.00
80139;BME280;69467;59.842;17.604;2023-11-21T09:52:52;102143.31;;;-2.04;100.00
80139;BME280;69467;59.842;17.604;2023-11-21T09:55:19;102145.28;;;-2.06;100.00
80139;BME280;69467;59.842;17.604;2023-11-21T09:57:47;102141.75;;;-2.07;100.00
80139;BME280;69467;59.842;17.604;2023-11-21T10:00:14;102150.66;;;-2.06;100.00
80139;BME280;69467;59.842;17.604;2023-11-21T10:02:42;102149.97;;;-2.08;100.00
80139;BME280;69467;59.842;17.604;2023-11-21T10:05:08;102149.97;;;-2.08;100.00
80139;BME280;69467;59.842;17.604;2023-11-21T10:07:36;102149.97;;;-2.08;100.00
80139;BME280;69467;59.842;17.604;2023-11-21T10:10:04;102155.03;;;-2.05;100.00
80139;BME280;69467;59.842;17.604;2023-11-21T10:12:29;102152.34;;;-2.05;100.00
80139;BME280;69467;59.842;17.604;2023-11-21T10:14:56;102161.94;;;-2.03;100.00
80139;BME280;69467;59.842;17.604;2023-11-21T10:17:23;102160.13;;;-2.02;100.00
80139;BME280;69467;59.842;17.604;2023-11-21T10:19:54;102158.44;;;-2.03;100.00
80139;BME280;69467;59.842;17.604;2023-11-21T10:22:21;102163.81;;;-2.03;100.00
80139;BME280;69467;59.842;17.604;2023-11-21T10:24:46;102153.63;;;-2.00;100.00
80139;BME280;69467;59.842;17.604;2023-11-21T10:27:12;102167.31;;;-1.93;100.00
80139;BME280;69467;59.842;17.604;2023-11-21T10:29:39;102168.59;;;-1.87;100.00
80139;BME280;69467;59.842;17.604;2023-11-21T10:32:04;102172.25;;;-1.79;100.00
80139;BME280;69467;59.842;17.604;2023-11-21T10:34:30;102180.72;;;-1.73;100.00
80139;BME280;69467;59.842;17.604;2023-11-21T10:36:56;102170.22;;;-1.67;100.00
80139;BME280;69467;59.842;17.604;2023-11-21T10:39:23;102176.31;;;-1.17;100.00
80139;BME280;69467;59.842;17.604;2023-11-21T10:41:49;102179.47;;;-1.04;100.00
80139;BME280;69467;59.842;17.604;2023-11-21T10:44:14;102182.59;;;-0.53;100.00
80139;BME280;69467;59.842;17.604;2023-11-21T10:46:46;102175.88;;;-0.49;100.00
80139;BME280;69467;59.842;17.604;2023-11-21T10:49:15;102178.16;;;-0.72;100.00
80139;BME280;69467;59.842;17.604;2023-11-21T10:51:43;102179.97;;;-0.62;100.00
80139;BME280;69467;59.842;17.604;2023-11-21T10:54:08;102186.56;;;-0.75;100.00
80139;BME280;69467;59.842;17.604;2023-11-21T10:56:34;102190.69;;;-0.81;100.00
80139;BME280;69467;59.842;17.604;2023-11-21T10:59:05;102192.97;;;-0.86;100.00
80139;BME280;69467;59.842;17.604;2023-11-21T11:01:32;102189.44;;;-0.86;100.00
80139;BME280;69467;59.842;17.604;2023-11-21T11:03:58;102201.91;;;-0.85;100.00
80139;BME280;69467;59.842;17.604;2023-11-21T11:06:23;102203.19;;;-0.89;100.00
80139;BME280;69467;59.842;17.604;2023-11-21T11:08:51;102203.03;;;-0.88;100.00
80139;BME280;69467;59.842;17.604;2023-11-21T11:11:16;102206.75;;;-0.89;100.00
80139;BME280;69467;59.842;17.604;2023-11-21T11:13:43;102208.88;;;-0.92;100.00
80139;BME280;69467;59.842;17.604;2023-11-21T11:16:10;102206.88;;;-0.90;100.00
80139;BME280;69467;59.842;17.604;2023-11-21T11:18:35;102204.03;;;-0.89;100.00
80139;BME280;69467;59.842;17.604;2023-11-21T11:21:13;102209.97;;;-0.85;100.00
80139;BME280;69467;59.842;17.604;2023-11-21T11:31:45;102205.13;;;-0.36;100.00
80139;BME280;69467;59.842;17.604;2023-11-21T11:34:32;102212.97;;;-0.42;100.00
80139;BME280;69467;59.842;17.604;2023-11-21T11:39:38;102230.31;;;-0.55;100.00
80139;BME280;69467;59.842;17.604;2023-11-21T11:42:07;102227.56;;;-0.63;100.00
80139;BME280;69467;59.842;17.604;2023-11-21T11:47:14;102225.59;;;-0.71;100.00
80139;BME280;69467;59.842;17.604;2023-11-21T11:49:56;102230.97;;;-0.71;100.00
80139;BME280;69467;59.842;17.604;2023-11-21T11:55:03;102232.44;;;-0.76;100.00
80139;BME280;69467;59.842;17.604;2023-11-21T11:57:33;102235.81;;;-0.74;100.00
80139;BME280;69467;59.842;17.604;2023-11-21T12:00:12;102234.09;;;-0.75;100.00
80139;BME280;69467;59.842;17.604;2023-11-21T12:02:41;102240.19;;;-0.73;100.00
80139;BME280;69467;59.842;17.604;2023-11-21T12:05:10;102237.50;;;-0.73;100.00
80139;BME280;69467;59.842;17.604;2023-11-21T12:10:11;102242.19;;;-0.75;100.00
80139;BME280;69467;59.842;17.604;2023-11-21T12:12:36;102243.19;;;-0.76;100.00
80139;BME280;69467;59.842;17.604;2023-11-21T12:15:04;102247.72;;;-0.77;100.00
80139;BME280;69467;59.842;17.604;2023-11-21T12:17:30;102246.88;;;-0.77;100.00
80139;BME280;69467;59.842;17.604;2023-11-21T12:20:01;102252.53;;;-0.81;100.00
80139;BME280;69467;59.842;17.604;2023-11-21T12:22:27;102246.59;;;-0.84;100.00
80139;BME280;69467;59.842;17.604;2023-11-21T12:24:53;102255.69;;;-0.85;100.00
80139;BME280;69467;59.842;17.604;2023-11-21T12:27:20;102251.44;;;-0.88;100.00
80139;BME280;69467;59.842;17.604;2023-11-21T12:29:45;102256.13;;;-0.90;100.00
80139;BME280;69467;59.842;17.604;2023-11-21T12:32:11;102256.28;;;-0.91;100.00
80139;BME280;69467;59.842;17.604;2023-11-21T12:34:36;102260.81;;;-0.92;100.00
80139;BME280;69467;59.842;17.604;2023-11-21T12:37:04;102264.50;;;-0.93;100.00
80139;BME280;69467;59.842;17.604;2023-11-21T12:39:29;102256.28;;;-0.91;100.00
80139;BME280;69467;59.842;17.604;2023-11-21T12:41:55;102257.41;;;-0.94;100.00
80139;BME280;69467;59.842;17.604;2023-11-21T12:44:20;102256.72;;;-0.96;100.00
80139;BME280;69467;59.842;17.604;2023-11-21T12:46:48;102260.41;;;-0.97;100.00
80139;BME280;69467;59.842;17.604;2023-11-21T12:49:14;102267.94;;;-1.01;100.00
80139;BME280;69467;59.842;17.604;2023-11-21T12:51:43;102268.94;;;-1.11;100.00
80139;BME280;69467;59.842;17.604;2023-11-21T12:54:09;102266.56;;;-1.15;100.00
80139;BME280;69467;59.842;17.604;2023-11-21T12:56:38;102261.19;;;-1.15;100.00
80139;BME280;69467;59.842;17.604;2023-11-21T12:59:03;102275.31;;;-1.13;100.00